sensor_id;sensor_type;location;lat;lon;timestamp;temperature;humidity
29501;DHT22;16450;50.288;10.966;2022-08-03T00:02:09;20.00;53.90
29501;DHT22;16450;50.288;10.966;2022-08-03T00:05:10;19.90;54.10
29501;DHT22;16450;50.288;10.966;2022-08-03T00:08:10;19.90;54.20
29501;DHT22;16450;50.288;10.966;2022-08-03T00:11:11;19.80;54.30
29501;DHT22;16450;50.288;10.966;2022-08-03T00:14:12;19.70;54.40
29501;DHT22;16450;50.288;10.966;2022-08-03T00:17:12;19.70;54.50
29501;DHT22;16450;50.288;10.966;2022-08-03T00:20:13;19.60;54.50
29501;DHT22;16450;50.288;10.966;2022-08-03T00:23:13;19.60;54.50
29501;DHT22;16450;50.288;10.966;2022-08-03T00:26:14;19.50;54.60
29501;DHT22;16450;50.288;10.966;2022-08-03T00:29:15;19.40;54.70
29501;DHT22;16450;50.288;10.966;2022-08-03T00:32:15;19.40;54.80
29501;DHT22;16450;50.288;10.966;2022-08-03T00:35:16;19.30;54.80
29501;DHT22;16450;50.288;10.966;2022-08-03T00:38:17;19.20;54.80
29501;DHT22;16450;50.288;10.966;2022-08-03T00:41:18;19.20;54.90
29501;DHT22;16450;50.288;10.966;2022-08-03T00:44:19;19.10;55.00
29501;DHT22;16450;50.288;10.966;2022-08-03T00:47:19;19.10;55.10
29501;DHT22;16450;50.288;10.966;2022-08-03T00:50:22;19.10;55.30
29501;DHT22;16450;50.288;10.966;2022-08-03T00:53:23;19.00;55.40
29501;DHT22;16450;50.288;10.966;2022-08-03T00:56:24;19.00;55.50
29501;DHT22;16450;50.288;10.966;2022-08-03T00:59:25;18.90;55.50
29501;DHT22;16450;50.288;10.966;2022-08-03T01:02:27;18.90;55.50
29501;DHT22;16450;50.288;10.966;2022-08-03T01:05:28;18.80;55.40
29501;DHT22;16450;50.288;10.966;2022-08-03T01:08:58;18.80;55.60
29501;DHT22;16450;50.288;10.966;2022-08-03T01:12:13;18.70;55.80
29501;DHT22;16450;50.288;10.966;2022-08-03T01:15:24;18.70;55.70
29501;DHT22;16450;50.288;10.966;2022-08-03T01:18:40;18.70;55.90
29501;DHT22;16450;50.288;10.966;2022-08-03T01:31:19;18.40;56.00
29501;DHT22;16450;50.288;10.966;2022-08-03T01:34:21;18.40;56.20
29501;DHT22;16450;50.288;10.966;2022-08-03T01:37:30;18.30;56.20
29501;DHT22;16450;50.288;10.966;2022-08-03T01:40:33;18.20;56.30
29501;DHT22;16450;50.288;10.966;2022-08-03T01:43:36;18.20;56.40
29501;DHT22;16450;50.288;10.966;2022-08-03T01:46:39;18.10;56.50
29501;DHT22;16450;50.288;10.966;2022-08-03T01:49:42;18.00;56.50
29501;DHT22;16450;50.288;10.966;2022-08-03T01:52:44;18.00;56.80
29501;DHT22;16450;50.288;10.966;2022-08-03T01:55:48;18.00;56.80
29501;DHT22;16450;50.288;10.966;2022-08-03T01:58:52;17.90;57.00
29501;DHT22;16450;50.288;10.966;2022-08-03T02:01:54;17.80;57.00
29501;DHT22;16450;50.288;10.966;2022-08-03T02:04:57;17.80;57.10
29501;DHT22;16450;50.288;10.966;2022-08-03T02:08:01;17.70;57.20
29501;DHT22;16450;50.288;10.966;2022-08-03T02:11:04;17.70;57.30
29501;DHT22;16450;50.288;10.966;2022-08-03T02:14:05;17.60;57.30
29501;DHT22;16450;50.288;10.966;2022-08-03T02:17:07;17.60;57.30
29501;DHT22;16450;50.288;10.966;2022-08-03T02:20:10;17.60;57.40
29501;DHT22;16450;50.288;10.966;2022-08-03T02:23:15;17.50;57.50
29501;DHT22;16450;50.288;10.966;2022-08-03T02:26:18;17.50;57.70
29501;DHT22;16450;50.288;10.966;2022-08-03T02:29:24;17.40;57.70
29501;DHT22;16450;50.288;10.966;2022-08-03T02:32:31;17.40;57.80
29501;DHT22;16450;50.288;10.966;2022-08-03T02:35:34;17.40;58.00
29501;DHT22;16450;50.288;10.966;2022-08-03T02:38:39;17.30;57.90
29501;DHT22;16450;50.288;10.966;2022-08-03T02:41:44;17.30;58.00
29501;DHT22;16450;50.288;10.966;2022-08-03T02:44:47;17.30;58.20
29501;DHT22;16450;50.288;10.966;2022-08-03T02:47:54;17.20;58.10
29501;DHT22;16450;50.288;10.966;2022-08-03T02:50:57;17.20;58.20
29501;DHT22;16450;50.288;10.966;2022-08-03T02:54:01;17.10;58.10
29501;DHT22;16450;50.288;10.966;2022-08-03T02:57:02;17.10;58.30
29501;DHT22;16450;50.288;10.966;2022-08-03T03:00:04;17.10;58.30
29501;DHT22;16450;50.288;10.966;2022-08-03T03:03:06;17.00;58.40
29501;DHT22;16450;50.288;10.966;2022-08-03T03:06:10;17.00;58.60
29501;DHT22;16450;50.288;10.966;2022-08-03T03:09:12;16.90;58.70
29501;DHT22;16450;50.288;10.966;2022-08-03T03:12:13;16.90;58.80
29501;DHT22;16450;50.288;10.966;2022-08-03T03:15:14;16.80;58.80
29501;DHT22;16450;50.288;10.966;2022-08-03T03:18:15;16.80;58.80
29501;DHT22;16450;50.288;10.966;2022-08-03T03:21:18;16.80;58.80
29501;DHT22;16450;50.288;10.966;2022-08-03T03:24:20;16.80;59.10
29501;DHT22;16450;50.288;10.966;2022-08-03T03:27:22;16.70;59.00
29501;DHT22;16450;50.288;10.966;2022-08-03T03:30:23;16.70;59.10
29501;DHT22;16450;50.288;10.966;2022-08-03T03:33:24;16.60;59.10
29501;DHT22;16450;50.288;10.966;2022-08-03T03:36:25;16.60;59.20
29501;DHT22;16450;50.288;10.966;2022-08-03T03:39:26;16.50;59.30
29501;DHT22;16450;50.288;10.966;2022-08-03T03:42:26;16.60;59.40
29501;DHT22;16450;50.288;10.966;2022-08-03T03:45:30;16.50;59.40
29501;DHT22;16450;50.288;10.966;2022-08-03T03:48:30;16.50;59.80
29501;DHT22;16450;50.288;10.966;2022-08-03T03:51:31;16.50;59.70
29501;DHT22;16450;50.288;10.966;2022-08-03T03:54:39;16.40;59.70
29501;DHT22;16450;50.288;10.966;2022-08-03T03:57:40;16.40;60.10
29501;DHT22;16450;50.288;10.966;2022-08-03T04:00:41;16.30;59.80
29501;DHT22;16450;50.288;10.966;2022-08-03T04:03:44;16.30;59.90
29501;DHT22;16450;50.288;10.966;2022-08-03T04:06:44;16.30;60.00
29501;DHT22;16450;50.288;10.966;2022-08-03T04:10:29;16.20;60.00
29501;DHT22;16450;50.288;10.966;2022-08-03T04:17:00;16.20;60.10
29501;DHT22;16450;50.288;10.966;2022-08-03T04:20:02;16.10;60.50
29501;DHT22;16450;50.288;10.966;2022-08-03T04:23:05;16.10;60.30
29501;DHT22;16450;50.288;10.966;2022-08-03T04:26:09;16.20;60.60
29501;DHT22;16450;50.288;10.966;2022-08-03T04:29:12;16.10;60.70
29501;DHT22;16450;50.288;10.966;2022-08-03T04:32:14;16.10;60.80
29501;DHT22;16450;50.288;10.966;2022-08-03T04:35:16;16.10;60.80
29501;DHT22;16450;50.288;10.966;2022-08-03T04:38:18;16.10;60.90
29501;DHT22;16450;50.288;10.966;2022-08-03T04:41:20;16.10;60.80
29501;DHT22;16450;50.288;10.966;2022-08-03T04:44:23;16.10;60.90
29501;DHT22;16450;50.288;10.966;2022-08-03T04:47:24;16.10;61.00
29501;DHT22;16450;50.288;10.966;2022-08-03T04:50:26;16.20;61.30
29501;DHT22;16450;50.288;10.966;2022-08-03T04:53:27;16.20;61.40
29501;DHT22;16450;50.288;10.966;2022-08-03T04:56:28;16.20;61.60
29501;DHT22;16450;50.288;10.966;2022-08-03T04:59:28;16.20;61.70
29501;DHT22;16450;50.288;10.966;2022-08-03T05:02:30;16.20;61.70
29501;DHT22;16450;50.288;10.966;2022-08-03T05:05:31;16.30;61.90
29501;DHT22;16450;50.288;10.966;2022-08-03T05:08:31;16.30;62.00
29501;DHT22;16450;50.288;10.966;2022-08-03T05:11:32;16.40;62.30
29501;DHT22;16450;50.288;10.966;2022-08-03T05:14:33;16.40;62.30
29501;DHT22;16450;50.288;10.966;2022-08-03T05:17:36;16.40;62.30
29501;DHT22;16450;50.288;10.966;2022-08-03T05:20:37;16.50;62.40
29501;DHT22;16450;50.288;10.966;2022-08-03T05:23:38;16.50;62.40
29501;DHT22;16450;50.288;10.966;2022-08-03T05:26:38;16.60;62.50
29501;DHT22;16450;50.288;10.966;2022-08-03T05:29:39;16.70;62.80
29501;DHT22;16450;50.288;10.966;2022-08-03T05:32:40;16.70;62.90
29501;DHT22;16450;50.288;10.966;2022-08-03T05:35:41;16.80;63.10
29501;DHT22;16450;50.288;10.966;2022-08-03T05:38:42;16.90;63.90
29501;DHT22;16450;50.288;10.966;2022-08-03T05:41:42;17.10;64.80
29501;DHT22;16450;50.288;10.966;2022-08-03T05:44:43;17.40;67.40
29501;DHT22;16450;50.288;10.966;2022-08-03T05:47:44;18.00;69.30
29501;DHT22;16450;50.288;10.966;2022-08-03T05:50:45;18.70;70.30
29501;DHT22;16450;50.288;10.966;2022-08-03T05:53:46;19.50;70.50
29501;DHT22;16450;50.288;10.966;2022-08-03T05:56:46;20.40;70.30
29501;DHT22;16450;50.288;10.966;2022-08-03T05:59:47;21.20;69.80
29501;DHT22;16450;50.288;10.966;2022-08-03T06:02:47;22.10;68.20
29501;DHT22;16450;50.288;10.966;2022-08-03T06:05:48;22.90;67.70
29501;DHT22;16450;50.288;10.966;2022-08-03T06:08:49;23.70;65.60
29501;DHT22;16450;50.288;10.966;2022-08-03T06:11:49;24.40;64.00
29501;DHT22;16450;50.288;10.966;2022-08-03T06:14:50;25.00;61.60
29501;DHT22;16450;50.288;10.966;2022-08-03T06:17:51;25.60;59.30
29501;DHT22;16450;50.288;10.966;2022-08-03T06:20:52;26.00;57.60
29501;DHT22;16450;50.288;10.966;2022-08-03T06:23:53;26.10;55.20
29501;DHT22;16450;50.288;10.966;2022-08-03T06:26:53;26.00;53.50
29501;DHT22;16450;50.288;10.966;2022-08-03T06:29:54;26.00;53.20
29501;DHT22;16450;50.288;10.966;2022-08-03T06:32:54;25.80;53.30
29501;DHT22;16450;50.288;10.966;2022-08-03T06:35:55;25.60;53.10
29501;DHT22;16450;50.288;10.966;2022-08-03T06:38:59;25.60;53.50
29501;DHT22;16450;50.288;10.966;2022-08-03T06:42:00;25.70;53.30
29501;DHT22;16450;50.288;10.966;2022-08-03T06:45:00;25.80;54.00
29501;DHT22;16450;50.288;10.966;2022-08-03T06:48:08;25.90;53.50
29501;DHT22;16450;50.288;10.966;2022-08-03T06:51:09;26.00;52.10
29501;DHT22;16450;50.288;10.966;2022-08-03T06:54:10;26.10;53.60
29501;DHT22;16450;50.288;10.966;2022-08-03T06:57:11;26.30;53.90
29501;DHT22;16450;50.288;10.966;2022-08-03T07:00:13;26.60;53.30
29501;DHT22;16450;50.288;10.966;2022-08-03T07:03:14;26.80;52.30
29501;DHT22;16450;50.288;10.966;2022-08-03T07:06:14;27.00;51.70
29501;DHT22;16450;50.288;10.966;2022-08-03T07:09:15;27.10;51.30
29501;DHT22;16450;50.288;10.966;2022-08-03T07:12:15;27.10;51.60
29501;DHT22;16450;50.288;10.966;2022-08-03T07:15:17;27.30;51.20
29501;DHT22;16450;50.288;10.966;2022-08-03T07:18:18;27.60;51.60
29501;DHT22;16450;50.288;10.966;2022-08-03T07:21:18;27.70;51.10
29501;DHT22;16450;50.288;10.966;2022-08-03T07:24:19;27.90;51.20
29501;DHT22;16450;50.288;10.966;2022-08-03T07:27:20;28.10;50.70
29501;DHT22;16450;50.288;10.966;2022-08-03T07:30:20;28.30;50.40
29501;DHT22;16450;50.288;10.966;2022-08-03T07:33:21;28.40;50.70
29501;DHT22;16450;50.288;10.966;2022-08-03T07:36:21;28.70;50.40
29501;DHT22;16450;50.288;10.966;2022-08-03T07:39:24;29.00;50.30
29501;DHT22;16450;50.288;10.966;2022-08-03T07:42:28;29.20;50.10
29501;DHT22;16450;50.288;10.966;2022-08-03T07:45:30;29.40;49.70
29501;DHT22;16450;50.288;10.966;2022-08-03T07:48:30;29.70;49.40
29501;DHT22;16450;50.288;10.966;2022-08-03T07:51:31;30.00;49.00
29501;DHT22;16450;50.288;10.966;2022-08-03T07:54:31;30.40;47.90
29501;DHT22;16450;50.288;10.966;2022-08-03T07:57:33;30.60;47.80
29501;DHT22;16450;50.288;10.966;2022-08-03T08:00:35;30.80;47.00
29501;DHT22;16450;50.288;10.966;2022-08-03T08:03:35;31.10;46.30
29501;DHT22;16450;50.288;10.966;2022-08-03T08:06:36;31.30;45.90
29501;DHT22;16450;50.288;10.966;2022-08-03T08:09:38;31.50;45.30
29501;DHT22;16450;50.288;10.966;2022-08-03T08:12:39;31.60;45.00
29501;DHT22;16450;50.288;10.966;2022-08-03T08:15:40;31.70;44.70
29501;DHT22;16450;50.288;10.966;2022-08-03T08:18:41;31.80;43.80
29501;DHT22;16450;50.288;10.966;2022-08-03T08:21:42;32.00;43.50
29501;DHT22;16450;50.288;10.966;2022-08-03T08:24:43;32.00;43.40
29501;DHT22;16450;50.288;10.966;2022-08-03T08:27:45;32.10;43.10
29501;DHT22;16450;50.288;10.966;2022-08-03T08:30:46;32.20;42.70
29501;DHT22;16450;50.288;10.966;2022-08-03T08:33:47;32.40;42.30
29501;DHT22;16450;50.288;10.966;2022-08-03T08:36:47;32.50;43.30
29501;DHT22;16450;50.288;10.966;2022-08-03T08:39:48;32.60;42.90
29501;DHT22;16450;50.288;10.966;2022-08-03T08:42:49;32.70;42.50
29501;DHT22;16450;50.288;10.966;2022-08-03T08:45:51;32.90;41.70
29501;DHT22;16450;50.288;10.966;2022-08-03T08:48:53;33.00;41.20
29501;DHT22;16450;50.288;10.966;2022-08-03T08:51:55;33.10;40.60
29501;DHT22;16450;50.288;10.966;2022-08-03T08:55:03;33.30;40.00
29501;DHT22;16450;50.288;10.966;2022-08-03T08:58:05;33.40;38.40
29501;DHT22;16450;50.288;10.966;2022-08-03T09:01:05;33.40;40.00
29501;DHT22;16450;50.288;10.966;2022-08-03T09:04:06;33.50;38.80
29501;DHT22;16450;50.288;10.966;2022-08-03T09:07:08;33.50;38.30
29501;DHT22;16450;50.288;10.966;2022-08-03T09:10:11;33.60;37.80
29501;DHT22;16450;50.288;10.966;2022-08-03T09:13:12;33.70;37.40
29501;DHT22;16450;50.288;10.966;2022-08-03T09:19:16;33.70;37.10
29501;DHT22;16450;50.288;10.966;2022-08-03T09:22:17;33.80;36.80
29501;DHT22;16450;50.288;10.966;2022-08-03T09:25:18;33.80;37.00
29501;DHT22;16450;50.288;10.966;2022-08-03T09:28:18;33.70;35.70
29501;DHT22;16450;50.288;10.966;2022-08-03T09:31:19;33.70;36.70
29501;DHT22;16450;50.288;10.966;2022-08-03T09:34:24;33.70;36.50
29501;DHT22;16450;50.288;10.966;2022-08-03T09:37:27;33.60;35.90
29501;DHT22;16450;50.288;10.966;2022-08-03T09:40:34;33.60;36.60
29501;DHT22;16450;50.288;10.966;2022-08-03T09:43:45;33.70;35.20
29501;DHT22;16450;50.288;10.966;2022-08-03T09:46:54;33.60;36.30
29501;DHT22;16450;50.288;10.966;2022-08-03T09:49:58;33.70;35.90
29501;DHT22;16450;50.288;10.966;2022-08-03T09:53:01;33.60;35.60
29501;DHT22;16450;50.288;10.966;2022-08-03T09:56:03;33.50;36.20
29501;DHT22;16450;50.288;10.966;2022-08-03T09:59:04;33.50;36.00
29501;DHT22;16450;50.288;10.966;2022-08-03T10:02:04;33.50;36.00
29501;DHT22;16450;50.288;10.966;2022-08-03T10:05:30;33.40;35.80
29501;DHT22;16450;50.288;10.966;2022-08-03T10:08:32;33.40;34.00
29501;DHT22;16450;50.288;10.966;2022-08-03T10:11:33;33.20;35.10
29501;DHT22;16450;50.288;10.966;2022-08-03T10:14:38;33.20;35.70
29501;DHT22;16450;50.288;10.966;2022-08-03T10:17:39;33.20;35.20
29501;DHT22;16450;50.288;10.966;2022-08-03T10:20:45;33.20;35.90
29501;DHT22;16450;50.288;10.966;2022-08-03T10:23:50;33.20;34.60
29501;DHT22;16450;50.288;10.966;2022-08-03T10:27:01;33.20;34.90
29501;DHT22;16450;50.288;10.966;2022-08-03T10:30:06;33.20;34.30
29501;DHT22;16450;50.288;10.966;2022-08-03T10:33:16;33.20;34.70
29501;DHT22;16450;50.288;10.966;2022-08-03T10:36:17;33.20;34.00
29501;DHT22;16450;50.288;10.966;2022-08-03T10:39:21;33.10;35.10
29501;DHT22;16450;50.288;10.966;2022-08-03T10:42:23;33.10;34.70
29501;DHT22;16450;50.288;10.966;2022-08-03T10:45:26;33.10;35.10
29501;DHT22;16450;50.288;10.966;2022-08-03T10:48:27;33.00;34.90
29501;DHT22;16450;50.288;10.966;2022-08-03T10:51:28;33.00;34.40
29501;DHT22;16450;50.288;10.966;2022-08-03T10:54:41;33.00;34.10
29501;DHT22;16450;50.288;10.966;2022-08-03T10:58:00;33.00;33.70
29501;DHT22;16450;50.288;10.966;2022-08-03T11:01:04;32.90;34.20
29501;DHT22;16450;50.288;10.966;2022-08-03T11:07:22;32.90;33.70
29501;DHT22;16450;50.288;10.966;2022-08-03T11:10:30;32.90;33.80
29501;DHT22;16450;50.288;10.966;2022-08-03T11:13:31;32.90;33.60
29501;DHT22;16450;50.288;10.966;2022-08-03T11:16:38;32.90;34.10
29501;DHT22;16450;50.288;10.966;2022-08-03T11:19:45;32.90;32.80
29501;DHT22;16450;50.288;10.966;2022-08-03T11:22:50;32.80;33.20
29501;DHT22;16450;50.288;10.966;2022-08-03T11:26:32;32.80;32.50
29501;DHT22;16450;50.288;10.966;2022-08-03T11:29:33;32.80;33.80
29501;DHT22;16450;50.288;10.966;2022-08-03T11:36:00;32.90;32.80
29501;DHT22;16450;50.288;10.966;2022-08-03T11:39:12;32.90;32.80
29501;DHT22;16450;50.288;10.966;2022-08-03T11:45:26;32.90;32.20
29501;DHT22;16450;50.288;10.966;2022-08-03T11:48:35;32.90;33.20
29501;DHT22;16450;50.288;10.966;2022-08-03T11:51:36;32.90;32.80
29501;DHT22;16450;50.288;10.966;2022-08-03T11:54:38;32.90;32.50
29501;DHT22;16450;50.288;10.966;2022-08-03T11:57:40;32.80;33.20
29501;DHT22;16450;50.288;10.966;2022-08-03T12:00:40;32.80;32.80
29501;DHT22;16450;50.288;10.966;2022-08-03T12:03:41;32.80;32.60
29501;DHT22;16450;50.288;10.966;2022-08-03T12:06:57;32.90;33.00
29501;DHT22;16450;50.288;10.966;2022-08-03T12:10:08;32.90;32.80
29501;DHT22;16450;50.288;10.966;2022-08-03T12:13:09;33.00;32.70
29501;DHT22;16450;50.288;10.966;2022-08-03T12:16:19;33.00;32.90
29501;DHT22;16450;50.288;10.966;2022-08-03T12:19:21;33.00;31.40
29501;DHT22;16450;50.288;10.966;2022-08-03T12:22:32;33.00;32.90
29501;DHT22;16450;50.288;10.966;2022-08-03T12:25:34;33.00;32.00
29501;DHT22;16450;50.288;10.966;2022-08-03T12:28:35;33.00;32.20
29501;DHT22;16450;50.288;10.966;2022-08-03T12:31:36;33.10;31.60
29501;DHT22;16450;50.288;10.966;2022-08-03T12:34:47;33.10;32.30
29501;DHT22;16450;50.288;10.966;2022-08-03T12:37:48;33.20;31.70
29501;DHT22;16450;50.288;10.966;2022-08-03T12:41:00;33.30;31.80
29501;DHT22;16450;50.288;10.966;2022-08-03T12:44:02;33.30;31.80
29501;DHT22;16450;50.288;10.966;2022-08-03T12:47:03;33.40;32.10
29501;DHT22;16450;50.288;10.966;2022-08-03T12:50:06;33.50;31.80
29501;DHT22;16450;50.288;10.966;2022-08-03T12:53:08;33.50;31.90
29501;DHT22;16450;50.288;10.966;2022-08-03T12:56:09;33.50;31.40
29501;DHT22;16450;50.288;10.966;2022-08-03T12:59:23;33.60;31.40
29501;DHT22;16450;50.288;10.966;2022-08-03T13:02:25;33.60;31.10
29501;DHT22;16450;50.288;10.966;2022-08-03T13:05:26;33.70;31.60
29501;DHT22;16450;50.288;10.966;2022-08-03T13:08:27;33.80;31.50
29501;DHT22;16450;50.288;10.966;2022-08-03T13:11:27;33.90;31.30
29501;DHT22;16450;50.288;10.966;2022-08-03T13:14:28;33.90;31.50
29501;DHT22;16450;50.288;10.966;2022-08-03T13:17:29;34.00;31.20
29501;DHT22;16450;50.288;10.966;2022-08-03T13:20:29;34.00;31.60
29501;DHT22;16450;50.288;10.966;2022-08-03T13:23:30;34.10;31.20
29501;DHT22;16450;50.288;10.966;2022-08-03T13:26:31;34.10;31.30
29501;DHT22;16450;50.288;10.966;2022-08-03T13:29:32;34.10;31.00
29501;DHT22;16450;50.288;10.966;2022-08-03T13:32:33;34.10;30.80
29501;DHT22;16450;50.288;10.966;2022-08-03T13:35:34;34.10;30.80
29501;DHT22;16450;50.288;10.966;2022-08-03T13:38:34;34.20;30.60
29501;DHT22;16450;50.288;10.966;2022-08-03T13:41:35;34.20;30.20
29501;DHT22;16450;50.288;10.966;2022-08-03T13:44:36;34.30;30.80
29501;DHT22;16450;50.288;10.966;2022-08-03T13:47:36;34.30;30.30
29501;DHT22;16450;50.288;10.966;2022-08-03T13:50:37;34.30;30.00
29501;DHT22;16450;50.288;10.966;2022-08-03T13:53:37;34.20;30.30
29501;DHT22;16450;50.288;10.966;2022-08-03T13:56:38;34.20;30.30
29501;DHT22;16450;50.288;10.966;2022-08-03T13:59:39;34.10;30.00
29501;DHT22;16450;50.288;10.966;2022-08-03T14:02:39;34.10;30.30
29501;DHT22;16450;50.288;10.966;2022-08-03T14:05:41;34.10;30.30
29501;DHT22;16450;50.288;10.966;2022-08-03T14:08:42;34.10;30.50
29501;DHT22;16450;50.288;10.966;2022-08-03T14:11:43;34.20;30.00
29501;DHT22;16450;50.288;10.966;2022-08-03T14:14:44;34.20;30.20
29501;DHT22;16450;50.288;10.966;2022-08-03T14:17:45;34.30;30.30
29501;DHT22;16450;50.288;10.966;2022-08-03T14:20:45;34.30;30.50
29501;DHT22;16450;50.288;10.966;2022-08-03T14:23:46;34.40;29.90
29501;DHT22;16450;50.288;10.966;2022-08-03T14:26:47;34.50;30.00
29501;DHT22;16450;50.288;10.966;2022-08-03T14:29:48;34.60;29.90
29501;DHT22;16450;50.288;10.966;2022-08-03T14:32:48;34.60;29.60
29501;DHT22;16450;50.288;10.966;2022-08-03T14:35:50;34.70;29.40
29501;DHT22;16450;50.288;10.966;2022-08-03T14:38:51;34.80;29.50
29501;DHT22;16450;50.288;10.966;2022-08-03T14:41:52;34.70;29.10
29501;DHT22;16450;50.288;10.966;2022-08-03T14:44:52;34.80;29.20
29501;DHT22;16450;50.288;10.966;2022-08-03T14:47:53;34.80;29.50
29501;DHT22;16450;50.288;10.966;2022-08-03T14:50:54;34.90;29.60
29501;DHT22;16450;50.288;10.966;2022-08-03T14:53:55;34.90;29.50
29501;DHT22;16450;50.288;10.966;2022-08-03T14:56:56;34.90;28.80
29501;DHT22;16450;50.288;10.966;2022-08-03T14:59:58;35.00;29.00
29501;DHT22;16450;50.288;10.966;2022-08-03T15:02:59;35.00;29.20
29501;DHT22;16450;50.288;10.966;2022-08-03T15:05:59;35.00;28.90
29501;DHT22;16450;50.288;10.966;2022-08-03T15:09:00;34.90;28.80
29501;DHT22;16450;50.288;10.966;2022-08-03T15:12:02;34.90;29.00
29501;DHT22;16450;50.288;10.966;2022-08-03T15:15:03;34.90;29.20
29501;DHT22;16450;50.288;10.966;2022-08-03T15:18:03;35.00;28.80
29501;DHT22;16450;50.288;10.966;2022-08-03T15:21:05;34.90;28.80
29501;DHT22;16450;50.288;10.966;2022-08-03T15:24:06;35.00;28.80
29501;DHT22;16450;50.288;10.966;2022-08-03T15:27:06;35.00;28.40
29501;DHT22;16450;50.288;10.966;2022-08-03T15:30:08;35.00;28.30
29501;DHT22;16450;50.288;10.966;2022-08-03T15:33:09;35.10;28.40
29501;DHT22;16450;50.288;10.966;2022-08-03T15:36:10;35.00;28.40
29501;DHT22;16450;50.288;10.966;2022-08-03T15:39:10;35.00;28.10
29501;DHT22;16450;50.288;10.966;2022-08-03T15:42:11;34.90;28.30
29501;DHT22;16450;50.288;10.966;2022-08-03T15:45:11;34.80;28.60
29501;DHT22;16450;50.288;10.966;2022-08-03T15:48:12;34.70;28.50
29501;DHT22;16450;50.288;10.966;2022-08-03T15:51:13;34.70;28.50
29501;DHT22;16450;50.288;10.966;2022-08-03T15:54:13;34.70;28.60
29501;DHT22;16450;50.288;10.966;2022-08-03T15:57:14;34.60;28.10
29501;DHT22;16450;50.288;10.966;2022-08-03T16:00:15;34.50;28.10
29501;DHT22;16450;50.288;10.966;2022-08-03T16:03:15;34.40;28.20
29501;DHT22;16450;50.288;10.966;2022-08-03T16:06:16;34.40;28.60
29501;DHT22;16450;50.288;10.966;2022-08-03T16:09:17;34.40;28.70
29501;DHT22;16450;50.288;10.966;2022-08-03T16:12:17;34.50;28.50
29501;DHT22;16450;50.288;10.966;2022-08-03T16:15:18;34.50;28.10
29501;DHT22;16450;50.288;10.966;2022-08-03T16:18:18;34.50;28.90
29501;DHT22;16450;50.288;10.966;2022-08-03T16:21:19;34.50;28.40
29501;DHT22;16450;50.288;10.966;2022-08-03T16:24:20;34.50;28.30
29501;DHT22;16450;50.288;10.966;2022-08-03T16:27:21;34.50;28.60
29501;DHT22;16450;50.288;10.966;2022-08-03T16:30:22;34.50;28.60
29501;DHT22;16450;50.288;10.966;2022-08-03T16:33:22;34.50;28.60
29501;DHT22;16450;50.288;10.966;2022-08-03T16:36:23;34.50;28.80
29501;DHT22;16450;50.288;10.966;2022-08-03T16:39:24;34.50;28.60
29501;DHT22;16450;50.288;10.966;2022-08-03T16:42:24;34.50;28.80
29501;DHT22;16450;50.288;10.966;2022-08-03T16:45:25;34.50;28.60
29501;DHT22;16450;50.288;10.966;2022-08-03T16:48:26;34.60;28.70
29501;DHT22;16450;50.288;10.966;2022-08-03T16:51:26;34.60;28.60
29501;DHT22;16450;50.288;10.966;2022-08-03T16:54:27;34.50;28.30
29501;DHT22;16450;50.288;10.966;2022-08-03T16:57:27;34.60;28.40
29501;DHT22;16450;50.288;10.966;2022-08-03T17:00:29;34.50;28.40
29501;DHT22;16450;50.288;10.966;2022-08-03T17:03:31;34.50;28.50
29501;DHT22;16450;50.288;10.966;2022-08-03T17:06:36;34.50;28.60
29501;DHT22;16450;50.288;10.966;2022-08-03T17:09:37;34.50;28.30
29501;DHT22;16450;50.288;10.966;2022-08-03T17:12:38;34.40;28.50
29501;DHT22;16450;50.288;10.966;2022-08-03T17:15:44;34.50;28.20
29501;DHT22;16450;50.288;10.966;2022-08-03T17:18:51;34.40;28.00
29501;DHT22;16450;50.288;10.966;2022-08-03T17:22:01;34.40;28.40
29501;DHT22;16450;50.288;10.966;2022-08-03T17:25:07;34.30;28.40
29501;DHT22;16450;50.288;10.966;2022-08-03T17:28:08;34.30;28.50
29501;DHT22;16450;50.288;10.966;2022-08-03T17:31:10;34.30;28.40
29501;DHT22;16450;50.288;10.966;2022-08-03T17:34:18;34.30;28.50
29501;DHT22;16450;50.288;10.966;2022-08-03T17:37:20;34.20;28.40
29501;DHT22;16450;50.288;10.966;2022-08-03T17:40:21;34.10;28.00
29501;DHT22;16450;50.288;10.966;2022-08-03T17:43:22;34.10;28.80
29501;DHT22;16450;50.288;10.966;2022-08-03T17:46:24;34.10;28.90
29501;DHT22;16450;50.288;10.966;2022-08-03T17:49:25;34.00;28.90
29501;DHT22;16450;50.288;10.966;2022-08-03T17:52:37;33.90;28.70
29501;DHT22;16450;50.288;10.966;2022-08-03T17:55:43;33.90;28.60
29501;DHT22;16450;50.288;10.966;2022-08-03T17:58:57;33.90;29.10
29501;DHT22;16450;50.288;10.966;2022-08-03T18:05:47;33.60;29.70
29501;DHT22;16450;50.288;10.966;2022-08-03T18:08:50;33.50;29.70
29501;DHT22;16450;50.288;10.966;2022-08-03T18:11:57;33.40;29.80
29501;DHT22;16450;50.288;10.966;2022-08-03T18:14:59;33.30;30.20
29501;DHT22;16450;50.288;10.966;2022-08-03T18:18:06;33.20;30.60
29501;DHT22;16450;50.288;10.966;2022-08-03T18:21:08;33.00;30.70
29501;DHT22;16450;50.288;10.966;2022-08-03T18:24:09;32.90;30.70
29501;DHT22;16450;50.288;10.966;2022-08-03T18:27:12;32.90;30.80
29501;DHT22;16450;50.288;10.966;2022-08-03T18:30:15;32.70;31.00
29501;DHT22;16450;50.288;10.966;2022-08-03T18:33:16;32.60;31.20
29501;DHT22;16450;50.288;10.966;2022-08-03T18:36:18;32.50;31.50
29501;DHT22;16450;50.288;10.966;2022-08-03T18:39:19;32.40;31.40
29501;DHT22;16450;50.288;10.966;2022-08-03T18:42:20;32.30;31.90
29501;DHT22;16450;50.288;10.966;2022-08-03T18:45:21;32.20;32.10
29501;DHT22;16450;50.288;10.966;2022-08-03T18:51:27;32.00;32.70
29501;DHT22;16450;50.288;10.966;2022-08-03T18:54:56;31.80;32.90
29501;DHT22;16450;50.288;10.966;2022-08-03T19:04:34;31.50;34.90
29501;DHT22;16450;50.288;10.966;2022-08-03T19:07:40;31.30;34.30
29501;DHT22;16450;50.288;10.966;2022-08-03T19:10:46;31.20;34.40
29501;DHT22;16450;50.288;10.966;2022-08-03T19:13:55;31.00;34.40
29501;DHT22;16450;50.288;10.966;2022-08-03T19:17:04;30.90;34.50
29501;DHT22;16450;50.288;10.966;2022-08-03T19:20:06;30.80;35.30
29501;DHT22;16450;50.288;10.966;2022-08-03T19:23:10;30.60;34.90
29501;DHT22;16450;50.288;10.966;2022-08-03T19:26:12;30.50;35.30
29501;DHT22;16450;50.288;10.966;2022-08-03T19:29:13;30.40;35.40
29501;DHT22;16450;50.288;10.966;2022-08-03T19:32:16;30.20;35.60
29501;DHT22;16450;50.288;10.966;2022-08-03T19:35:19;30.10;35.80